Time;durP1;ratioP1;P1;durP2;ratioP2;P2;SDS_P1;SDS_P2;PMS_P1;PMS_P2;Temp;Humidity;BMP_temperature;BMP_pressure;BME280_temperature;BME280_humidity;BME280_pressure;Samples;Min_cycle;Max_cycle;Signal;HPM_P1;HPM_P2
2021/07/17 00:01:18;;;;;;;0.20;0.20;;;;;;;23.15;68.21;99245.66;4988451;28;20323;-83
2021/07/17 00:03:44;;;;;;;0.30;0.20;;;;;;;23.16;68.36;99250.09;4985999;28;20480;-85
2021/07/17 00:06:10;;;;;;;0.70;0.20;;;;;;;23.17;67.30;99243.50;4996357;28;20120;-82
2021/07/17 00:08:36;;;;;;;0.30;0.28;;;;;;;23.20;67.60;99243.00;4994147;28;20057;-84
2021/07/17 00:11:04;;;;;;;0.20;0.17;;;;;;;23.21;67.83;99238.31;4970001;28;20067;-84
2021/07/17 00:13:30;;;;;;;0.20;0.20;;;;;;;23.16;68.07;99235.47;4974421;28;20082;-84
2021/07/17 00:15:57;;;;;;;0.13;0.10;;;;;;;23.06;68.48;99236.09;4988049;28;20043;-84
2021/07/17 00:18:23;;;;;;;0.20;0.10;;;;;;;23.06;68.32;99241.59;4983743;28;20105;-85
2021/07/17 00:20:49;;;;;;;1.05;0.32;;;;;;;23.04;68.55;99227.22;4980925;28;20043;-85
2021/07/17 00:23:17;;;;;;;0.15;0.10;;;;;;;23.02;68.35;99232.13;4994576;28;20093;-83
2021/07/17 00:25:47;;;;;;;0.20;0.20;;;;;;;22.95;68.53;99236.94;4975599;28;20103;-85
2021/07/17 00:28:20;;;;;;;0.10;0.10;;;;;;;22.96;69.16;99233.09;4978942;28;20046;-84
2021/07/17 00:30:48;;;;;;;0.10;0.10;;;;;;;22.93;69.03;99231.69;4996642;28;20042;-86
2021/07/17 00:33:15;;;;;;;0.10;0.10;;;;;;;22.86;69.19;99237.28;4969374;28;20045;-83
2021/07/17 00:35:41;;;;;;;0.10;0.10;;;;;;;22.81;69.63;99239.91;4988743;28;20563;-82
2021/07/17 00:38:07;;;;;;;0.30;0.20;;;;;;;22.82;70.13;99244.38;4968125;28;20094;-83
2021/07/17 00:40:33;;;;;;;0.20;0.10;;;;;;;22.76;70.48;99242.56;4976099;28;20129;-83
2021/07/17 00:42:59;;;;;;;0.10;0.10;;;;;;;22.68;70.77;99245.69;4990940;28;20102;-84
2021/07/17 00:45:25;;;;;;;0.10;0.10;;;;;;;22.57;71.05;99241.03;4989266;28;20157;-83
2021/07/17 00:47:52;;;;;;;0.13;0.10;;;;;;;22.56;71.51;99247.59;4982527;28;20080;-84
2021/07/17 00:50:20;;;;;;;0.10;0.10;;;;;;;22.55;71.72;99245.91;4984194;28;20096;-85
2021/07/17 00:52:46;;;;;;;0.10;0.10;;;;;;;22.53;71.54;99248.09;4964904;28;20460;-84
2021/07/17 00:55:13;;;;;;;0.10;0.10;;;;;;;22.55;71.73;99245.91;4975707;28;20448;-84
2021/07/17 00:57:41;;;;;;;0.10;0.10;;;;;;;22.53;71.65;99237.91;4970211;28;20494;-82
2021/07/17 01:00:11;;;;;;;0.10;0.10;;;;;;;22.50;71.72;99237.53;4964885;28;20127;-82
2021/07/17 01:02:40;;;;;;;0.10;0.10;;;;;;;22.51;71.08;99244.72;4971569;28;20034;-84
2021/07/17 01:05:07;;;;;;;0.10;0.10;;;;;;;22.50;71.12;99243.06;4968844;28;20126;-82
2021/07/17 01:07:48;;;;;;;0.40;0.10;;;;;;;22.49;71.34;99244.13;4974408;28;20241;-83
2021/07/17 01:10:17;;;;;;;0.10;0.10;;;;;;;22.45;71.45;99242.91;4986757;28;20046;-83
2021/07/17 01:12:43;;;;;;;0.10;0.10;;;;;;;22.42;71.73;99238.75;4976975;28;20516;-82
2021/07/17 01:15:10;;;;;;;0.10;0.10;;;;;;;22.44;71.03;99233.81;4979057;28;20130;-82
2021/07/17 01:17:36;;;;;;;0.20;0.20;;;;;;;22.51;71.72;99236.47;4972409;28;20038;-83
2021/07/17 01:20:08;;;;;;;0.10;0.10;;;;;;;22.52;71.60;99241.72;4978785;28;20098;-82
2021/07/17 01:22:36;;;;;;;0.10;0.10;;;;;;;22.51;71.54;99236.47;4967959;28;20058;-83
2021/07/17 01:25:08;;;;;;;0.10;0.10;;;;;;;22.52;71.46;99232.63;4993089;28;20104;-83
2021/07/17 01:27:34;;;;;;;0.10;0.10;;;;;;;22.55;71.14;99240.41;4946629;28;20054;-84
2021/07/17 01:30:15;;;;;;;0.10;0.10;;;;;;;22.59;71.10;99249.88;4974609;28;20043;-84
2021/07/17 01:32:42;;;;;;;0.10;0.10;;;;;;;22.59;71.48;99238.84;4979821;28;20051;-82
2021/07/17 01:35:08;;;;;;;0.10;0.10;;;;;;;22.63;71.17;99253.81;4957308;28;20076;-84
2021/07/17 01:37:34;;;;;;;0.63;0.38;;;;;;;22.59;71.60;99247.13;4983251;28;20256;-86
2021/07/17 01:40:04;;;;;;;0.20;0.20;;;;;;;22.63;71.22;99248.31;4981161;28;20555;-83
2021/07/17 01:42:30;;;;;;;0.15;0.10;;;;;;;22.65;71.37;99251.69;4985363;28;20074;-84
2021/07/17 01:45:02;;;;;;;0.10;0.10;;;;;;;22.68;71.30;99248.44;4984097;28;20039;-84
2021/07/17 01:47:28;;;;;;;0.10;0.10;;;;;;;22.72;70.90;99246.88;5003368;28;20099;-83
2021/07/17 01:49:54;;;;;;;0.10;0.10;;;;;;;22.73;70.70;99243.03;4987157;28;20054;-84
2021/07/17 01:52:20;;;;;;;0.10;0.10;;;;;;;22.75;71.09;99238.13;4967304;28;20035;-86
2021/07/17 01:54:48;;;;;;;0.10;0.10;;;;;;;22.76;70.68;99237.06;4989902;28;20566;-84
2021/07/17 01:57:14;;;;;;;0.10;0.10;;;;;;;22.80;70.93;99242.91;4980773;28;20123;-84
2021/07/17 01:59:41;;;;;;;0.10;0.10;;;;;;;22.82;70.69;99229.75;4984867;28;20050;-85
2021/07/17 02:02:07;;;;;;;0.10;0.10;;;;;;;22.85;70.68;99235.63;4972733;28;20046;-83
2021/07/17 02:04:33;;;;;;;0.17;0.10;;;;;;;22.88;70.43;99228.75;4979415;28;20094;-83
2021/07/17 02:07:00;;;;;;;0.10;0.10;;;;;;;22.88;70.57;99229.59;4981577;28;20039;-83
2021/07/17 02:09:26;;;;;;;0.10;0.10;;;;;;;22.92;70.62;99234.66;4963206;28;20110;-83
2021/07/17 02:11:52;;;;;;;0.10;0.10;;;;;;;22.92;70.78;99237.41;4979899;28;20050;-82
2021/07/17 02:14:18;;;;;;;0.10;0.10;;;;;;;23.00;69.16;99237.03;4976518;28;20089;-84
2021/07/17 02:16:44;;;;;;;0.10;0.10;;;;;;;23.09;68.59;99225.41;4978546;28;20177;-84
2021/07/17 02:19:18;;;;;;;0.10;0.10;;;;;;;23.19;68.19;99230.31;4939591;28;20035;-84
2021/07/17 02:21:51;;;;;;;0.10;0.10;;;;;;;23.27;67.70;99232.69;4951536;28;20045;-84
2021/07/17 02:24:18;;;;;;;0.10;0.10;;;;;;;23.32;67.69;99230.00;4961704;28;20042;-82
2021/07/17 02:26:47;;;;;;;0.10;0.10;;;;;;;23.40;67.67;99231.56;4988327;28;20594;-84
2021/07/17 02:29:14;;;;;;;0.10;0.10;;;;;;;23.47;67.36;99231.41;4986983;28;20146;-84
2021/07/17 02:31:41;;;;;;;0.10;0.10;;;;;;;23.56;66.92;99229.94;4975493;28;20042;-84
2021/07/17 02:34:09;;;;;;;0.10;0.10;;;;;;;23.55;66.56;99231.03;4972015;28;20540;-83
2021/07/17 02:36:35;;;;;;;0.10;0.10;;;;;;;23.63;66.68;99232.56;4981433;28;20046;-84
2021/07/17 02:39:03;;;;;;;0.10;0.10;;;;;;;23.71;67.15;99233.03;4973684;28;20042;-83
2021/07/17 02:41:29;;;;;;;0.10;0.10;;;;;;;23.78;66.53;99230.94;4995549;28;20034;-84
2021/07/17 02:43:56;;;;;;;0.10;0.10;;;;;;;23.85;66.50;99233.56;4957838;28;20067;-85
2021/07/17 02:46:22;;;;;;;0.10;0.10;;;;;;;23.88;66.92;99234.97;4978858;28;20446;-83
2021/07/17 02:48:48;;;;;;;0.10;0.10;;;;;;;23.95;66.94;99236.50;4987457;28;20043;-83
2021/07/17 02:51:14;;;;;;;0.10;0.10;;;;;;;23.99;66.89;99229.41;4982682;28;20065;-83
2021/07/17 02:53:40;;;;;;;0.10;0.10;;;;;;;24.09;66.67;99237.00;4970684;28;20043;-84
2021/07/17 02:56:06;;;;;;;0.20;0.10;;;;;;;24.21;65.66;99242.47;4980513;28;20042;-84
2021/07/17 02:58:32;;;;;;;0.10;0.10;;;;;;;24.32;66.06;99240.72;4982175;28;20131;-83
2021/07/17 03:00:58;;;;;;;0.32;0.20;;;;;;;24.44;65.68;99238.72;4981428;28;20062;-83
2021/07/17 03:03:25;;;;;;;0.17;0.17;;;;;;;24.51;65.58;99242.16;4941638;28;20110;-84
2021/07/17 03:05:51;;;;;;;0.20;0.10;;;;;;;24.55;65.38;99248.84;4958913;28;20086;-84
2021/07/17 03:08:22;;;;;;;0.13;0.13;;;;;;;24.68;65.17;99248.53;4948093;28;20046;-83
2021/07/17 03:10:53;;;;;;;0.10;0.10;;;;;;;24.81;64.63;99240.94;4979826;28;20046;-83
2021/07/17 03:13:19;;;;;;;0.20;0.20;;;;;;;24.95;63.89;99231.19;4978884;28;20093;-84
2021/07/17 03:15:47;;;;;;;0.10;0.10;;;;;;;25.10;63.05;99238.88;4961205;28;20216;-84
2021/07/17 03:18:14;;;;;;;0.13;0.10;;;;;;;25.12;61.84;99237.56;4944233;29;20067;-84
2021/07/17 03:20:40;;;;;;;0.10;0.10;;;;;;;25.31;61.48;99237.25;4971699;28;20027;-86
2021/07/17 03:23:06;;;;;;;0.10;0.10;;;;;;;25.47;60.34;99233.53;4983584;28;20070;-83
2021/07/17 03:25:32;;;;;;;0.10;0.10;;;;;;;25.60;59.77;99237.84;4973681;28;20050;-85
2021/07/17 03:27:58;;;;;;;0.13;0.13;;;;;;;25.80;60.13;99248.34;4985597;28;20125;-84
2021/07/17 03:30:24;;;;;;;0.10;0.10;;;;;;;25.94;59.35;99241.28;4974315;28;20477;-84
2021/07/17 03:32:50;;;;;;;0.10;0.10;;;;;;;26.11;58.75;99233.69;4962141;28;20027;-83
2021/07/17 03:35:16;;;;;;;0.13;0.13;;;;;;;26.15;58.62;99236.78;4966838;28;20034;-84
2021/07/17 03:37:42;;;;;;;0.10;0.10;;;;;;;26.24;58.56;99246.28;4979365;28;20093;-84
2021/07/17 03:40:08;;;;;;;0.10;0.10;;;;;;;26.42;58.39;99247.81;4984710;28;20527;-83
2021/07/17 03:42:34;;;;;;;0.10;0.10;;;;;;;26.65;57.92;99250.22;4993420;28;20128;-83
2021/07/17 03:45:01;;;;;;;0.10;0.10;;;;;;;26.71;56.86;99241.97;4983357;28;20046;-84
2021/07/17 03:47:27;;;;;;;0.10;0.10;;;;;;;26.91;56.68;99247.63;4962171;28;20046;-84
2021/07/17 03:49:53;;;;;;;0.13;0.13;;;;;;;27.13;56.11;99245.56;4974731;28;20050;-83
2021/07/17 03:52:19;;;;;;;0.10;0.10;;;;;;;27.18;55.60;99247.53;4993332;28;20043;-84
2021/07/17 03:54:46;;;;;;;0.20;0.20;;;;;;;27.32;55.27;99247.88;5001568;28;20079;-84
2021/07/17 03:57:12;;;;;;;0.20;0.20;;;;;;;27.46;55.12;99253.75;4982476;28;20158;-85
2021/07/17 03:59:38;;;;;;;0.10;0.10;;;;;;;27.70;54.08;99243.00;4998871;28;20030;-84
2021/07/17 04:02:04;;;;;;;0.10;0.10;;;;;;;27.95;53.30;99245.03;4982271;28;20035;-84
2021/07/17 04:04:31;;;;;;;0.20;0.20;;;;;;;28.04;52.79;99249.75;5016112;23;20030;-84
2021/07/17 04:06:57;;;;;;;0.10;0.10;;;;;;;28.23;52.67;99249.22;5006166;28;20049;-85
2021/07/17 04:09:24;;;;;;;0.10;0.10;;;;;;;28.41;51.82;99247.88;4994962;28;20353;-83
2021/07/17 04:11:50;;;;;;;0.10;0.10;;;;;;;28.53;51.72;99252.06;5000990;28;20149;-84
2021/07/17 04:14:17;;;;;;;0.10;0.10;;;;;;;28.63;51.64;99244.78;4993585;28;20698;-83
2021/07/17 04:16:43;;;;;;;0.20;0.20;;;;;;;28.68;51.58;99242.03;5011557;28;20038;-84
2021/07/17 04:19:10;;;;;;;0.20;0.20;;;;;;;28.58;51.67;99245.66;5001826;28;20057;-85
2021/07/17 04:21:36;;;;;;;0.20;0.20;;;;;;;28.71;51.21;99242.31;5011828;28;20037;-85
2021/07/17 04:24:03;;;;;;;0.20;0.20;;;;;;;28.88;51.04;99252.28;4991866;28;20061;-85
2021/07/17 04:26:30;;;;;;;0.20;0.20;;;;;;;29.12;50.65;99246.97;4991242;28;20085;-85
2021/07/17 04:28:56;;;;;;;0.20;0.20;;;;;;;29.35;49.91;99251.88;4983433;28;20060;-85
2021/07/17 04:31:23;;;;;;;0.20;0.20;;;;;;;29.52;49.41;99246.81;5009922;28;20133;-85
2021/07/17 04:33:50;;;;;;;0.20;0.20;;;;;;;29.54;49.37;99239.00;5010893;28;20109;-85
2021/07/17 04:36:16;;;;;;;0.20;0.20;;;;;;;29.82;48.45;99239.44;5001617;28;20057;-86
2021/07/17 04:38:42;;;;;;;0.20;0.20;;;;;;;30.20;47.17;99248.13;5024073;28;20089;-85
2021/07/17 04:41:08;;;;;;;0.30;0.30;;;;;;;30.55;45.97;99252.56;4998174;28;20054;-84
2021/07/17 04:43:35;;;;;;;0.32;0.25;;;;;;;30.68;45.85;99253.88;4994635;28;20035;-86
2021/07/17 04:46:01;;;;;;;0.30;0.30;;;;;;;30.81;45.67;99255.97;4970504;28;20033;-86
2021/07/17 04:48:28;;;;;;;0.20;0.20;;;;;;;31.09;44.90;99256.25;5004757;28;20037;-85
2021/07/17 04:50:55;;;;;;;0.30;0.30;;;;;;;31.39;44.62;99255.09;4977654;28;20050;-87
2021/07/17 04:53:22;;;;;;;0.30;0.30;;;;;;;31.66;43.78;99254.44;5733923;23;20060;-85
2021/07/17 04:55:49;;;;;;;0.30;0.30;;;;;;;31.85;43.43;99252.53;5291757;23;20069;-86
2021/07/17 04:58:18;;;;;;;0.20;0.20;;;;;;;31.94;42.55;99253.53;5558348;22;20016;-85
2021/07/17 05:00:45;;;;;;;0.30;0.30;;;;;;;31.99;42.00;99252.63;4978157;28;20384;-85
2021/07/17 05:03:11;;;;;;;0.30;0.30;;;;;;;31.84;42.72;99250.00;5007301;23;20034;-85
2021/07/17 05:05:38;;;;;;;0.30;0.30;;;;;;;32.21;41.97;99256.75;4978041;28;20062;-88
2021/07/17 05:08:04;;;;;;;0.30;0.30;;;;;;;32.33;42.15;99255.19;5009097;28;20038;-87
2021/07/17 05:10:31;;;;;;;0.30;0.30;;;;;;;32.59;41.53;99257.56;4995411;28;20039;-85
2021/07/17 05:12:58;;;;;;;0.30;0.30;;;;;;;32.65;40.52;99259.13;5011938;28;20069;-87
2021/07/17 05:15:28;;;;;;;0.30;0.30;;;;;;;32.75;39.89;99264.56;5010022;28;20057;-86
2021/07/17 05:17:55;;;;;;;0.20;0.20;;;;;;;33.17;38.87;99265.50;5012683;28;20035;-87
2021/07/17 05:20:21;;;;;;;0.30;0.30;;;;;;;33.18;38.55;99264.34;4993648;28;20046;-87
2021/07/17 05:22:48;;;;;;;0.30;0.30;;;;;;;33.63;37.86;99272.97;4991406;28;20115;-86
2021/07/17 05:25:15;;;;;;;0.30;0.30;;;;;;;33.81;37.44;99263.59;4991766;28;20034;-86
2021/07/17 05:27:41;;;;;;;0.30;0.30;;;;;;;34.03;37.37;99262.84;5013716;28;20126;-87
2021/07/17 05:30:08;;;;;;;0.32;0.32;;;;;;;33.94;37.14;99256.31;4991176;28;20053;-87
2021/07/17 05:32:35;;;;;;;0.22;0.22;;;;;;;33.85;37.59;99263.78;4993052;28;20077;-85
2021/07/17 05:35:02;;;;;;;0.30;0.30;;;;;;;34.07;36.40;99265.84;4993583;28;20492;-86
2021/07/17 05:37:29;;;;;;;0.32;0.32;;;;;;;34.60;35.78;99262.34;4996472;28;20042;-85
2021/07/17 05:39:57;;;;;;;0.30;0.30;;;;;;;34.79;34.97;99260.13;5159436;23;20193;-88
2021/07/17 06:03:30;;;;;;;0.40;0.40;;;;;;;36.27;32.84;99268.25;5378083;23;20065;-87
2021/07/17 06:12:48;;;;;;;0.40;0.40;;;;;;;36.87;31.64;99258.94;5319471;23;20058;-87
2021/07/17 06:15:15;;;;;;;0.40;0.40;;;;;;;37.40;31.53;99261.22;5181682;23;20093;-87
2021/07/17 06:24:17;;;;;;;0.40;0.40;;;;;;;37.38;32.09;99257.09;5851680;23;20041;31
2021/07/17 06:29:48;;;;;;;0.40;0.40;;;;;;;37.47;31.65;99255.06;5681090;23;20033;-86
2021/07/17 06:32:18;;;;;;;0.40;0.40;;;;;;;38.11;30.23;99257.66;5703916;23;20045;-87
2021/07/17 06:59:06;;;;;;;0.50;0.50;;;;;;;36.84;31.47;99239.88;5629048;23;20037;-87
2021/07/17 07:05:15;;;;;;;0.50;0.50;;;;;;;37.88;30.13;99251.53;5693325;23;20030;-83
2021/07/17 07:08:20;;;;;;;0.60;0.60;;;;;;;38.37;29.54;99248.19;5606858;23;20049;-83
2021/07/17 07:10:46;;;;;;;0.70;0.70;;;;;;;37.75;30.39;99243.31;4969810;28;20574;-83
2021/07/17 07:13:16;;;;;;;0.65;0.65;;;;;;;37.33;30.86;99237.53;4950650;28;20050;-81
2021/07/17 07:15:42;;;;;;;0.60;0.60;;;;;;;37.60;30.88;99242.72;4961251;28;20058;-83
2021/07/17 07:18:14;;;;;;;0.55;0.55;;;;;;;38.10;29.31;99232.59;4932324;28;20058;-84
2021/07/17 07:20:42;;;;;;;0.50;0.50;;;;;;;37.71;30.42;99242.34;4975398;28;20043;-85
2021/07/17 07:23:10;;;;;;;0.60;0.60;;;;;;;38.58;29.16;99243.31;4959180;28;20062;-84
2021/07/17 07:25:51;;;;;;;0.80;0.80;;;;;;;39.45;27.35;99242.31;4967817;28;20038;-83
2021/07/17 07:28:19;;;;;;;0.60;0.60;;;;;;;38.64;27.66;99235.44;4970729;28;20038;-83
2021/07/17 07:30:47;;;;;;;0.60;0.60;;;;;;;38.70;28.05;99239.69;4942914;28;20069;-86
2021/07/17 07:39:52;;;;;;;0.70;0.70;;;;;;;39.61;26.68;99238.78;5435033;23;20051;31
2021/07/17 07:42:26;;;;;;;0.73;0.73;;;;;;;40.53;25.69;99231.47;5704422;23;20017;31
2021/07/17 07:44:56;;;;;;;0.60;0.60;;;;;;;41.52;23.94;99235.34;5534481;23;21719;-84
2021/07/17 07:47:31;;;;;;;0.73;0.73;;;;;;;41.79;22.49;99237.19;5584617;23;20026;31
2021/07/17 07:53:19;;;;;;;0.60;0.60;;;;;;;41.92;21.19;99233.06;5140703;23;20047;-86
2021/07/17 07:55:50;;;;;;;0.80;0.80;;;;;;;42.85;20.44;99232.16;5296840;23;20050;-87
2021/07/17 07:58:20;;;;;;;0.77;0.77;;;;;;;43.26;19.98;99232.53;4985645;28;20044;-85
2021/07/17 08:04:06;;;;;;;0.75;0.75;;;;;;;42.51;20.80;99233.13;5171628;23;20117;-86
2021/07/17 08:06:34;;;;;;;0.70;0.70;;;;;;;43.10;20.01;99232.66;4975715;28;20034;-86
2021/07/17 08:09:02;;;;;;;0.70;0.70;;;;;;;43.63;20.28;99234.78;4960297;28;20038;-86
2021/07/17 08:11:30;;;;;;;0.63;0.63;;;;;;;43.49;19.68;99228.84;4926809;29;20042;-87
2021/07/17 08:13:58;;;;;;;0.90;0.90;;;;;;;44.26;19.33;99228.31;4941480;28;20054;-86
2021/07/17 08:19:34;;;;;;;0.80;0.80;;;;;;;44.40;17.97;99221.19;5048974;23;20142;-86
2021/07/17 08:22:02;;;;;;;0.80;0.80;;;;;;;43.80;18.17;99222.78;4969789;28;20058;-84
2021/07/17 08:24:30;;;;;;;0.10;0.10;;;;;;;40.75;21.38;99208.22;5044331;23;20041;-84
2021/07/17 08:30:24;;;;;;;0.80;0.80;;;;;;;42.44;18.84;99218.75;4907583;29;20060;-85
2021/07/17 08:32:57;;;;;;;0.93;0.93;;;;;;;43.66;17.89;99211.19;4917217;29;20055;-86
2021/07/17 08:35:27;;;;;;;0.90;0.90;;;;;;;44.32;17.29;99216.59;4918001;29;20055;-85
2021/07/17 08:37:56;;;;;;;0.90;0.90;;;;;;;44.24;17.66;99219.34;4917640;29;20040;-85
2021/07/17 08:40:25;;;;;;;0.80;0.80;;;;;;;43.57;17.98;99220.03;4934711;29;20044;-84
2021/07/17 08:42:57;;;;;;;1.00;1.00;;;;;;;44.44;16.79;99216.34;4889800;29;20103;-85
2021/07/17 08:45:27;;;;;;;0.98;0.98;;;;;;;44.82;16.32;99211.47;4949370;28;20107;-84
2021/07/17 08:47:58;;;;;;;0.90;0.90;;;;;;;44.74;16.38;99202.84;4905871;29;20039;-87
2021/07/17 08:50:28;;;;;;;0.90;0.90;;;;;;;44.63;16.37;99204.75;4931893;29;20044;-87
2021/07/17 08:53:01;;;;;;;0.90;0.90;;;;;;;45.34;16.31;99201.75;5142922;23;20077;-86
2021/07/17 08:55:32;;;;;;;0.80;0.80;;;;;;;45.87;16.09;99206.25;4977173;28;20054;-84
2021/07/17 08:58:02;;;;;;;1.10;1.10;;;;;;;46.32;15.91;99209.72;5005510;28;20083;-85
2021/07/17 09:00:37;;;;;;;0.80;0.80;;;;;;;45.71;16.60;99197.94;5018437;23;20034;-85
2021/07/17 09:03:08;;;;;;;0.80;0.80;;;;;;;45.97;15.59;99211.19;5001684;23;20074;-85
2021/07/17 09:05:42;;;;;;;0.75;0.75;;;;;;;45.48;16.60;99192.50;4962638;28;20039;-83
2021/07/17 09:08:14;;;;;;;0.90;0.90;;;;;;;46.14;15.90;99198.19;4929223;29;20071;-84
2021/07/17 09:10:53;;;;;;;1.00;1.00;;;;;;;46.61;15.97;99205.75;5052540;23;20062;-85
2021/07/17 09:13:29;;;;;;;0.80;0.80;;;;;;;45.90;16.79;99202.59;4989585;28;20077;-85
2021/07/17 09:16:09;;;;;;;1.02;1.00;;;;;;;46.02;16.50;99196.50;4978628;28;20042;-85
2021/07/17 09:18:54;;;;;;;0.10;0.10;;;;;;;44.55;17.80;99200.19;4980770;28;20042;-84
2021/07/17 09:21:33;;;;;;;0.82;0.82;;;;;;;44.24;18.42;99190.00;4972810;28;20046;-84
2021/07/17 09:24:09;;;;;;;0.73;0.73;;;;;;;44.71;17.78;99180.00;4986839;28;20047;-85
2021/07/17 09:26:38;;;;;;;0.70;0.70;;;;;;;45.40;17.36;99187.94;4976133;28;20039;-84
2021/07/17 09:29:08;;;;;;;;;;;;;;;44.69;17.95;99176.72;4979951;28;20038;-82
2021/07/17 09:31:49;;;;;;;0.60;0.60;;;;;;;44.71;18.74;99175.09;4996632;28;19921;-85
2021/07/17 09:34:18;;;;;;;0.85;0.85;;;;;;;45.02;18.69;99178.66;4983622;28;20077;-84
2021/07/17 09:37:07;;;;;;;0.70;0.70;;;;;;;45.90;17.43;99186.25;4990736;28;20051;-83
2021/07/17 09:39:40;;;;;;;0.70;0.70;;;;;;;45.98;17.02;99178.53;4954164;28;20096;-85
2021/07/17 09:42:14;;;;;;;0.82;0.82;;;;;;;46.37;16.93;99166.47;4968409;28;20154;-86
2021/07/17 09:44:42;;;;;;;0.30;0.30;;;;;;;45.38;17.83;99167.50;4997394;28;20095;-85
2021/07/17 09:47:25;;;;;;;0.15;0.10;;;;;;;43.65;19.10;99169.69;4972134;28;20565;-82
2021/07/17 09:50:33;;;;;;;0.10;0.10;;;;;;;42.82;19.60;99161.00;4969605;28;20031;-83
2021/07/17 09:53:03;;;;;;;0.70;0.70;;;;;;;44.12;17.15;99162.59;4952576;28;20183;-84
2021/07/17 09:55:31;;;;;;;0.80;0.80;;;;;;;44.86;16.18;99146.72;4969102;28;20513;-85
2021/07/17 09:58:12;;;;;;;0.70;0.70;;;;;;;45.22;16.07;99142.94;4969388;28;20031;-85
2021/07/17 10:00:38;;;;;;;0.70;0.70;;;;;;;44.92;17.44;99133.72;4968628;28;20042;-86
2021/07/17 10:03:14;;;;;;;0.80;0.80;;;;;;;45.32;17.11;99140.56;4979098;28;20287;-84
2021/07/17 10:05:42;;;;;;;0.77;0.77;;;;;;;45.79;17.12;99138.84;4935206;28;20054;-84
2021/07/17 10:08:10;;;;;;;0.70;0.70;;;;;;;45.89;17.74;99135.22;4983427;28;20118;-85
2021/07/17 10:10:39;;;;;;;0.45;0.45;;;;;;;46.30;16.96;99126.41;4984271;28;20022;-84
2021/07/17 10:13:07;;;;;;;0.20;0.20;;;;;;;44.53;18.88;99122.75;4971284;28;20039;-85
2021/07/17 10:15:34;;;;;;;0.63;0.63;;;;;;;44.58;18.57;99122.41;4990462;28;20045;-84
2021/07/17 10:18:23;;;;;;;0.60;0.60;;;;;;;44.75;18.70;99113.19;4992377;28;20027;-84
2021/07/17 10:20:56;;;;;;;0.70;0.70;;;;;;;44.26;18.71;99105.75;4973264;28;20126;-84
2021/07/17 10:23:30;;;;;;;0.60;0.60;;;;;;;45.08;17.91;99122.88;5012516;23;20039;31
2021/07/17 10:26:00;;;;;;;0.63;0.63;;;;;;;45.23;17.90;99127.47;4951819;28;20066;-86
2021/07/17 10:28:30;;;;;;;0.60;0.60;;;;;;;45.88;17.01;99127.88;4949991;28;20083;-86
2021/07/17 10:30:59;;;;;;;0.60;0.60;;;;;;;45.30;16.31;99125.88;4955352;28;20105;-85
2021/07/17 10:33:29;;;;;;;0.70;0.70;;;;;;;45.66;16.01;99127.72;4965921;28;20050;-86
2021/07/17 10:35:59;;;;;;;0.55;0.55;;;;;;;45.20;17.10;99128.28;4961395;28;20019;-85
2021/07/17 10:41:33;;;;;;;0.30;0.30;;;;;;;44.64;17.45;99122.84;5063040;23;20061;-85
2021/07/17 10:44:02;;;;;;;0.20;0.20;;;;;;;44.36;18.08;99124.22;4977440;28;20054;-84
2021/07/17 10:46:44;;;;;;;0.10;0.10;;;;;;;42.06;19.77;99118.94;4990768;28;20039;-84
2021/07/17 10:49:12;;;;;;;0.10;0.10;;;;;;;41.27;20.08;99119.19;4997780;28;20047;-84
2021/07/17 10:51:50;;;;;;;0.05;0.05;;;;;;;40.83;20.86;99119.31;4992334;28;20294;-85
2021/07/17 10:54:30;;;;;;;0.30;0.30;;;;;;;41.68;20.80;99111.22;5012227;28;20042;-86
2021/07/17 10:57:00;;;;;;;0.30;0.30;;;;;;;41.74;21.03;99106.06;5013042;28;20042;-86
2021/07/17 10:59:29;;;;;;;0.30;0.30;;;;;;;41.85;20.62;99113.66;5099353;23;20054;-85
2021/07/17 11:02:00;;;;;;;0.20;0.20;;;;;;;41.52;21.63;99116.16;4995399;28;20039;-84
2021/07/17 11:04:48;;;;;;;0.20;0.20;;;;;;;41.20;21.60;99104.84;4943751;28;20046;-85
2021/07/17 11:07:34;;;;;;;0.10;0.10;;;;;;;41.15;22.15;99113.66;4946799;28;20047;-85
2021/07/17 11:10:07;;;;;;;;;;;;;;;40.89;23.04;99111.38;4941568;29;20673;-84
2021/07/17 11:12:47;;;;;;;0.00;0.00;;;;;;;40.56;22.96;99109.75;5109031;23;19930;-85
2021/07/17 11:15:18;;;;;;;0.10;0.10;;;;;;;40.07;23.56;99109.13;4980754;28;20045;-85
2021/07/17 11:17:50;;;;;;;0.10;0.10;;;;;;;39.58;24.33;99098.81;5185666;23;20054;-84
2021/07/17 11:20:21;;;;;;;0.10;0.10;;;;;;;39.54;24.41;99110.03;4979797;28;20102;-83
2021/07/17 11:23:01;;;;;;;0.10;0.10;;;;;;;38.93;25.39;99107.25;4958083;29;20042;-84
2021/07/17 11:25:28;;;;;;;0.00;0.00;;;;;;;38.40;25.96;99120.38;4944133;29;20055;-84
2021/07/17 11:27:55;;;;;;;0.40;0.30;;;;;;;36.40;29.91;99132.91;4934517;29;20043;-86
2021/07/17 11:30:22;;;;;;;0.22;0.20;;;;;;;35.93;31.86;99117.91;4932457;29;20044;-83
2021/07/17 11:33:04;;;;;;;0.50;0.40;;;;;;;34.92;33.89;99133.94;4951409;29;20110;-85
2021/07/17 11:35:33;;;;;;;0.65;0.10;;;;;;;34.32;34.65;99138.09;4940890;29;20051;-83
2021/07/17 11:38:02;;;;;;;0.52;0.10;;;;;;;34.01;35.43;99135.28;4912723;29;20054;-86
2021/07/17 11:40:29;;;;;;;0.10;0.10;;;;;;;33.66;35.73;99137.75;4932259;29;20118;-84
2021/07/17 11:43:01;;;;;;;0.10;0.10;;;;;;;33.39;36.85;99143.44;4938983;29;20043;-84
2021/07/17 11:45:30;;;;;;;0.10;0.10;;;;;;;33.35;36.84;99149.66;4931183;29;20063;-82
2021/07/17 11:48:27;;;;;;;0.10;0.10;;;;;;;33.08;36.73;99141.28;4937051;29;20315;-83
2021/07/17 11:51:00;;;;;;;0.10;0.10;;;;;;;32.68;37.68;99145.72;4931809;29;20066;-84
2021/07/17 11:53:27;;;;;;;0.30;0.10;;;;;;;32.74;39.86;99145.31;4914728;29;20479;-83
2021/07/17 11:55:59;;;;;;;0.10;0.10;;;;;;;32.62;40.74;99153.41;4934308;29;20039;-82
2021/07/17 11:58:26;;;;;;;0.10;0.10;;;;;;;32.23;40.52;99148.19;4938441;29;20043;-84
2021/07/17 12:01:03;;;;;;;0.10;0.10;;;;;;;32.01;39.91;99148.84;4959607;29;20043;-83
2021/07/17 12:03:31;;;;;;;0.10;0.10;;;;;;;32.00;39.99;99152.78;4952121;29;20043;-83
2021/07/17 12:06:00;;;;;;;0.10;0.10;;;;;;;31.63;40.82;99155.28;4961916;29;20044;-82
2021/07/17 12:08:27;;;;;;;0.10;0.10;;;;;;;31.87;41.67;99146.81;4916307;29;20481;-83
2021/07/17 12:10:54;;;;;;;0.10;0.10;;;;;;;31.60;41.55;99133.53;4904109;29;20047;-82
2021/07/17 12:13:22;;;;;;;0.28;0.10;;;;;;;31.53;42.45;99137.84;4916781;29;20098;-84
2021/07/17 12:15:52;;;;;;;0.10;0.10;;;;;;;31.83;41.28;99142.94;4907183;29;20048;-85
2021/07/17 12:18:19;;;;;;;0.10;0.10;;;;;;;31.63;41.10;99126.47;4951672;28;20073;-81
2021/07/17 12:20:49;;;;;;;0.40;0.17;;;;;;;31.70;40.76;99124.13;4979623;28;20089;-82
2021/07/17 12:23:21;;;;;;;0.17;0.10;;;;;;;31.84;40.90;99133.41;4986464;28;20301;-85
2021/07/17 12:25:57;;;;;;;0.10;0.10;;;;;;;31.59;40.84;99126.28;4994300;28;20133;-83
2021/07/17 12:28:29;;;;;;;0.10;0.10;;;;;;;31.61;41.47;99117.59;5000144;28;20102;-84
2021/07/17 12:30:58;;;;;;;0.10;0.10;;;;;;;31.62;41.16;99119.25;4967816;28;20043;-83
2021/07/17 12:33:31;;;;;;;0.10;0.10;;;;;;;31.56;40.92;99117.69;4992674;28;20072;-83
2021/07/17 12:36:18;;;;;;;0.10;0.10;;;;;;;31.57;41.47;99125.75;5000214;28;20083;-83
2021/07/17 12:38:55;;;;;;;0.32;0.20;;;;;;;31.41;41.49;99125.16;4981312;28;20043;-83
2021/07/17 12:41:24;;;;;;;0.10;0.10;;;;;;;31.25;41.37;99114.47;4967026;28;20104;-83
2021/07/17 12:43:51;;;;;;;0.10;0.10;;;;;;;31.13;41.49;99123.28;4984297;28;20159;-84
2021/07/17 12:46:31;;;;;;;0.10;0.10;;;;;;;30.81;42.69;99116.41;4999069;28;20119;-82
2021/07/17 12:49:00;;;;;;;0.10;0.10;;;;;;;31.19;42.10;99125.72;4964072;28;20039;-81
2021/07/17 12:51:35;;;;;;;0.10;0.10;;;;;;;31.08;41.86;99114.94;4966834;28;20074;-85
2021/07/17 12:54:05;;;;;;;0.10;0.10;;;;;;;30.93;42.12;99122.41;4985920;28;20058;-82
2021/07/17 12:56:50;;;;;;;0.10;0.10;;;;;;;30.97;42.73;99125.41;4966745;28;20078;-83
2021/07/17 12:59:24;;;;;;;0.10;0.10;;;;;;;31.03;42.03;99129.00;4997426;28;20042;-84
2021/07/17 13:02:00;;;;;;;0.10;0.10;;;;;;;31.08;42.31;99126.13;5017710;23;20054;-85
2021/07/17 13:04:28;;;;;;;0.10;0.10;;;;;;;30.76;42.92;99133.25;5189746;23;20175;-82
2021/07/17 13:07:00;;;;;;;0.10;0.10;;;;;;;30.86;43.03;99135.91;4999038;28;20330;-83
2021/07/17 13:09:40;;;;;;;0.10;0.10;;;;;;;31.02;42.85;99133.75;4963513;28;20030;-84
2021/07/17 13:12:14;;;;;;;0.10;0.10;;;;;;;31.01;42.79;99145.19;4983278;28;20217;-82
2021/07/17 13:14:43;;;;;;;0.10;0.10;;;;;;;30.99;42.66;99140.75;4989274;28;20117;-83